createdAt,value
2023-04-02T00:00:53.030Z,26.41
2023-04-02T00:01:53.077Z,33.49
2023-04-02T00:02:53.093Z,32.74
2023-04-02T00:03:53.062Z,35.86
2023-04-02T00:04:53.054Z,34.79
2023-04-02T00:05:53.051Z,36.70
2023-04-02T00:06:53.043Z,37.75
2023-04-02T00:07:53.049Z,35.18
2023-04-02T00:08:53.030Z,41.98
2023-04-02T00:09:53.019Z,33.06
2023-04-02T00:10:53.037Z,36.01
2023-04-02T00:11:52.993Z,35.81
2023-04-02T00:12:53.016Z,35.83
2023-04-02T00:13:53.007Z,35.36
2023-04-02T00:14:52.972Z,40.74
2023-04-02T00:15:52.958Z,37.81
2023-04-02T00:16:53.089Z,40.25
2023-04-02T00:17:52.989Z,28.77
2023-04-02T00:18:52.946Z,35.92
2023-04-02T00:19:52.944Z,35.90
2023-04-02T00:20:52.959Z,42.04
2023-04-02T00:21:52.924Z,37.66
2023-04-02T00:22:52.917Z,34.91
2023-04-02T00:23:52.923Z,38.96
2023-04-02T00:24:52.936Z,34.72
2023-04-02T00:25:52.932Z,41.30
2023-04-02T00:26:52.959Z,39.44
2023-04-02T00:27:52.970Z,39.89
2023-04-02T00:28:52.995Z,40.22
2023-04-02T00:29:52.999Z,42.44
2023-04-02T00:30:53.036Z,41.52
2023-04-02T00:31:53.088Z,39.04
2023-04-02T00:32:53.118Z,39.55
2023-04-02T00:33:53.085Z,36.97
2023-04-02T00:34:53.088Z,38.19
2023-04-02T00:35:53.191Z,39.41
2023-04-02T00:36:53.159Z,37.65
2023-04-02T00:37:53.108Z,37.12
2023-04-02T00:38:53.123Z,38.51
2023-04-02T00:39:53.141Z,35.22
2023-04-02T00:40:53.130Z,38.99
2023-04-02T00:41:53.133Z,39.34
2023-04-02T00:42:53.126Z,38.58
2023-04-02T00:43:53.131Z,38.72
2023-04-02T00:44:53.147Z,36.66
2023-04-02T00:45:53.236Z,36.29
2023-04-02T00:46:53.152Z,34.75
2023-04-02T00:47:53.257Z,37.70
2023-04-02T00:48:53.133Z,41.31
2023-04-02T00:49:53.130Z,38.55
2023-04-02T00:50:53.145Z,37.51
2023-04-02T00:51:53.135Z,35.95
2023-04-02T00:52:53.154Z,37.22
2023-04-02T00:53:53.092Z,43.53
2023-04-02T00:54:53.074Z,42.61
2023-04-02T00:55:53.039Z,36.05
2023-04-02T00:56:53.035Z,31.57
2023-04-02T00:57:53.010Z,35.00
2023-04-02T00:58:52.976Z,37.22
2023-04-02T00:59:52.960Z,40.66
2023-04-02T01:00:52.950Z,34.86
2023-04-02T01:01:53.088Z,36.47
2023-04-02T01:02:53.027Z,34.73
2023-04-02T01:03:52.966Z,38.25
2023-04-02T01:04:52.925Z,35.71
2023-04-02T01:05:52.908Z,28.63
2023-04-02T01:06:53.048Z,34.45
2023-04-02T01:07:52.896Z,37.75
2023-04-02T01:08:52.907Z,35.54
2023-04-02T01:09:52.905Z,33.90
2023-04-02T01:10:52.893Z,36.43
2023-04-02T01:11:52.890Z,38.83
2023-04-02T01:12:52.880Z,34.73
2023-04-02T01:13:52.867Z,36.62
2023-04-02T01:14:52.877Z,36.96
2023-04-02T01:15:52.937Z,36.40
2023-04-02T01:16:52.857Z,37.43
2023-04-02T01:17:52.921Z,36.65
2023-04-02T01:18:52.878Z,39.52
2023-04-02T01:19:52.884Z,35.96
2023-04-02T01:20:52.901Z,37.20
2023-04-02T01:21:52.971Z,38.35
2023-04-02T01:22:52.935Z,36.22
2023-04-02T01:23:52.937Z,35.62
2023-04-02T01:24:52.928Z,37.10
2023-04-02T01:25:52.929Z,38.55
2023-04-02T01:26:52.921Z,34.14
2023-04-02T01:27:52.932Z,31.56
2023-04-02T01:28:52.928Z,26.45
2023-04-02T01:29:52.950Z,31.51
2023-04-02T01:30:52.970Z,29.84
2023-04-02T01:31:52.997Z,32.10
2023-04-02T01:32:53.081Z,31.78
2023-04-02T01:33:53.055Z,33.83
2023-04-02T01:34:53.102Z,35.92
2023-04-02T01:35:53.157Z,31.79
2023-04-02T01:36:53.124Z,35.66
2023-04-02T01:37:53.167Z,38.45
2023-04-02T01:38:53.182Z,32.71
2023-04-02T01:39:53.205Z,28.54
2023-04-02T01:40:53.200Z,25.73
2023-04-02T01:41:53.235Z,27.23
2023-04-02T01:42:53.243Z,28.03
2023-04-02T01:43:53.245Z,25.97
2023-04-02T01:44:53.247Z,31.67
2023-04-02T01:45:53.272Z,31.27
2023-04-02T01:46:53.269Z,28.53
2023-04-02T01:47:53.357Z,27.64
2023-04-02T01:48:53.262Z,30.23
2023-04-02T01:49:53.252Z,28.44
2023-04-02T01:50:53.232Z,34.15
2023-04-02T01:51:53.233Z,35.60
2023-04-02T01:52:53.227Z,41.97
2023-04-02T01:53:53.208Z,46.68
2023-04-02T01:54:53.184Z,42.01
2023-04-02T01:55:53.195Z,47.17
2023-04-02T01:56:53.259Z,42.56
2023-04-02T01:57:53.150Z,49.57
2023-04-02T01:58:53.136Z,38.55
2023-04-02T01:59:53.122Z,37.82
2023-04-02T02:00:53.138Z,32.21
2023-04-02T02:01:53.127Z,34.62
2023-04-02T02:02:53.085Z,34.60
2023-04-02T02:03:53.025Z,40.52
2023-04-02T02:04:53.022Z,40.81
2023-04-02T02:05:53.011Z,43.81
2023-04-02T02:06:53.032Z,44.52
2023-04-02T02:07:53.038Z,45.30
2023-04-02T02:08:53.031Z,46.55
2023-04-02T02:09:53.032Z,48.13
2023-04-02T02:10:53.021Z,46.93
2023-04-02T02:11:53.037Z,42.61
2023-04-02T02:12:53.009Z,45.42
2023-04-02T02:13:53.008Z,47.54
2023-04-02T02:14:53.004Z,47.72
2023-04-02T02:15:52.962Z,34.98
2023-04-02T02:16:52.962Z,40.33
2023-04-02T02:17:53.004Z,38.92
2023-04-02T02:18:52.950Z,36.79
2023-04-02T02:19:52.942Z,35.96
2023-04-02T02:20:52.946Z,40.58
2023-04-02T02:21:52.937Z,44.92
2023-04-02T02:22:52.946Z,44.79
2023-04-02T02:23:52.940Z,48.78
2023-04-02T02:24:52.961Z,44.94
2023-04-02T02:25:52.994Z,40.27
2023-04-02T02:26:52.973Z,36.37
2023-04-02T02:27:52.987Z,29.67
2023-04-02T02:28:52.988Z,29.94
2023-04-02T02:29:52.986Z,28.21
2023-04-02T02:30:52.993Z,33.45
2023-04-02T02:31:53.083Z,31.02
2023-04-02T02:32:53.062Z,32.25
2023-04-02T02:33:53.071Z,26.35
2023-04-02T02:34:53.004Z,33.62
2023-04-02T02:35:53.119Z,29.39
2023-04-02T02:36:53.010Z,29.02
2023-04-02T02:37:52.988Z,29.38
2023-04-02T02:38:54.401Z,27.92
2023-04-02T02:39:52.963Z,27.77
2023-04-02T02:40:52.980Z,34.51
2023-04-02T02:41:52.953Z,36.43
2023-04-02T02:42:52.950Z,36.97
2023-04-02T02:43:52.934Z,42.64
2023-04-02T02:44:52.925Z,39.53
2023-04-02T02:45:52.950Z,38.51
2023-04-02T02:46:52.909Z,39.01
2023-04-02T02:47:52.916Z,36.43
2023-04-02T02:48:52.878Z,32.55
2023-04-02T02:49:52.870Z,32.21
2023-04-02T02:50:52.877Z,30.41
2023-04-02T02:51:52.873Z,27.17
2023-04-02T02:52:52.885Z,26.17
2023-04-02T02:53:52.886Z,29.07
2023-04-02T02:54:52.904Z,29.34
2023-04-02T02:55:52.896Z,32.46
2023-04-02T02:56:52.945Z,41.04
2023-04-02T02:57:52.887Z,44.79
2023-04-02T02:58:52.899Z,39.83
2023-04-02T02:59:52.885Z,38.31
2023-04-02T03:00:52.919Z,34.80
2023-04-02T03:01:52.929Z,38.45
2023-04-02T03:02:52.992Z,32.98
2023-04-02T03:03:53.083Z,36.70
2023-04-02T03:04:53.031Z,44.56
2023-04-02T03:05:52.942Z,36.15
2023-04-02T03:06:52.953Z,38.98
2023-04-02T03:07:52.937Z,32.17
2023-04-02T03:08:52.965Z,35.36
2023-04-02T03:09:52.977Z,34.60
2023-04-02T03:10:52.967Z,31.16
2023-04-02T03:11:52.962Z,32.15
2023-04-02T03:12:52.985Z,31.82
2023-04-02T03:13:52.971Z,31.55
2023-04-02T03:14:52.994Z,33.01
2023-04-02T03:15:53.018Z,29.59
2023-04-02T03:16:53.029Z,34.11
2023-04-02T03:17:53.079Z,33.80
2023-04-02T03:18:53.013Z,35.80
2023-04-02T03:19:53.026Z,37.56
2023-04-02T03:20:53.047Z,34.33
2023-04-02T03:21:53.013Z,38.93
2023-04-02T03:22:53.023Z,35.78
2023-04-02T03:23:53.016Z,35.76
2023-04-02T03:24:53.020Z,32.96
2023-04-02T03:25:52.996Z,34.95
2023-04-02T03:26:52.970Z,37.00
2023-04-02T03:27:52.984Z,31.05
2023-04-02T03:28:52.960Z,33.51
2023-04-02T03:29:52.956Z,33.84
2023-04-02T03:30:52.984Z,29.47
2023-04-02T03:31:52.934Z,32.52
2023-04-02T03:32:52.947Z,33.69
2023-04-02T03:33:52.917Z,35.33
2023-04-02T03:34:52.911Z,35.78
2023-04-02T03:35:52.913Z,34.61
2023-04-02T03:36:52.902Z,44.66
2023-04-02T03:37:52.899Z,42.91
2023-04-02T03:38:52.849Z,45.23
2023-04-02T03:39:52.834Z,39.69
2023-04-02T03:40:52.803Z,38.84
2023-04-02T03:41:52.774Z,37.03
2023-04-02T03:42:52.742Z,30.73
2023-04-02T03:43:52.747Z,35.97
2023-04-02T03:44:52.701Z,29.69
2023-04-02T03:45:52.752Z,34.54
2023-04-02T03:46:52.716Z,33.39
2023-04-02T03:47:52.704Z,35.76
2023-04-02T03:48:52.669Z,29.21
2023-04-02T03:49:52.652Z,37.27
2023-04-02T03:50:52.628Z,34.45
2023-04-02T03:51:52.605Z,41.38
2023-04-02T03:52:52.579Z,42.77
2023-04-02T03:53:52.536Z,39.60
2023-04-02T03:54:53.719Z,40.10
2023-04-02T03:55:52.473Z,35.24
2023-04-02T03:56:52.504Z,34.46
2023-04-02T03:57:52.415Z,37.64
2023-04-02T03:58:52.388Z,37.01
2023-04-02T03:59:52.369Z,32.73
2023-04-02T04:00:52.379Z,32.75
2023-04-02T04:01:52.379Z,32.53
2023-04-02T04:02:52.365Z,31.45
2023-04-02T04:03:52.380Z,39.19
2023-04-02T04:04:52.253Z,35.44
2023-04-02T04:05:52.240Z,30.40
2023-04-02T04:06:52.253Z,27.22
2023-04-02T04:07:52.231Z,31.33
2023-04-02T04:08:52.215Z,33.49
2023-04-02T04:09:52.201Z,33.54
2023-04-02T04:10:52.230Z,31.20
2023-04-02T04:11:52.186Z,33.87
2023-04-02T04:12:52.205Z,33.63
2023-04-02T04:13:52.167Z,28.91
2023-04-02T04:14:52.162Z,29.01
2023-04-02T04:15:52.154Z,32.89
2023-04-02T04:16:52.245Z,27.99
2023-04-02T04:17:52.716Z,29.09
2023-04-02T04:18:52.130Z,28.09
2023-04-02T04:19:52.136Z,25.00
2023-04-02T04:20:52.133Z,27.79
2023-04-02T04:21:52.120Z,28.13
2023-04-02T04:22:52.108Z,35.29
2023-04-02T04:23:52.113Z,36.59
2023-04-02T04:24:52.117Z,37.84
2023-04-02T04:25:52.111Z,36.04
2023-04-02T04:26:52.096Z,36.72
2023-04-02T04:27:52.108Z,29.01
2023-04-02T04:28:52.075Z,33.58
2023-04-02T04:29:52.060Z,34.40
2023-04-02T04:30:52.068Z,38.27
2023-04-02T04:31:52.090Z,42.81
2023-04-02T04:32:52.073Z,42.90
2023-04-02T04:33:52.009Z,35.16
2023-04-02T04:34:51.985Z,36.02
2023-04-02T04:35:51.983Z,37.36
2023-04-02T04:36:51.955Z,43.36
2023-04-02T04:37:51.964Z,39.15
2023-04-02T04:38:51.942Z,39.17
2023-04-02T04:39:51.922Z,39.17
2023-04-02T04:40:51.901Z,39.73
2023-04-02T04:41:51.903Z,43.74
2023-04-02T04:42:51.867Z,39.54
2023-04-02T04:43:51.859Z,34.47
2023-04-02T04:44:51.824Z,32.33
2023-04-02T04:45:51.848Z,36.50
2023-04-02T04:46:51.763Z,39.09
2023-04-02T04:47:51.833Z,41.78
2023-04-02T04:48:51.718Z,39.73
2023-04-02T04:49:51.684Z,40.75
2023-04-02T04:50:51.661Z,42.92
2023-04-02T04:51:51.622Z,42.25
2023-04-02T04:52:51.599Z,47.43
2023-04-02T04:53:51.601Z,41.51
2023-04-02T04:54:51.590Z,39.56
2023-04-02T04:55:51.581Z,38.78
2023-04-02T04:56:51.620Z,34.00
2023-04-02T04:57:51.532Z,32.96
2023-04-02T04:58:51.504Z,39.22
2023-04-02T04:59:51.500Z,44.94
2023-04-02T05:00:51.476Z,39.49
2023-04-02T05:01:51.538Z,40.87
2023-04-02T05:02:51.438Z,41.12
2023-04-02T05:03:51.392Z,45.56
2023-04-02T05:04:51.418Z,46.00
2023-04-02T05:05:51.366Z,41.92
2023-04-02T05:06:51.332Z,47.51
2023-04-02T05:07:51.299Z,47.55
2023-04-02T05:08:51.281Z,38.38
2023-04-02T05:09:51.248Z,41.09
2023-04-02T05:10:51.198Z,38.92
2023-04-02T05:11:51.189Z,42.40
2023-04-02T05:12:51.149Z,35.65
2023-04-02T05:13:51.131Z,37.69
2023-04-02T05:14:51.137Z,33.04
2023-04-02T05:15:51.158Z,32.90
2023-04-02T05:16:51.125Z,30.30
2023-04-02T05:17:51.175Z,34.67
2023-04-02T05:18:51.084Z,28.58
2023-04-02T05:19:51.080Z,26.75
2023-04-02T05:20:51.041Z,36.51
2023-04-02T05:21:51.016Z,31.20
2023-04-02T05:22:50.992Z,32.97
2023-04-02T05:23:50.971Z,29.78
2023-04-02T05:24:50.930Z,25.91
2023-04-02T05:25:50.929Z,30.55
2023-04-02T05:26:50.907Z,29.25
2023-04-02T05:27:50.878Z,32.96
2023-04-02T05:28:50.869Z,26.03
2023-04-02T05:29:50.857Z,30.94
2023-04-02T05:30:50.870Z,29.86
2023-04-02T05:31:50.849Z,35.30
2023-04-02T05:32:50.846Z,34.13
2023-04-02T05:33:50.790Z,30.95
2023-04-02T05:34:50.752Z,29.49
2023-04-02T05:35:50.734Z,32.20
2023-04-02T05:36:50.718Z,29.12
2023-04-02T05:37:50.695Z,26.10
2023-04-02T05:38:50.676Z,31.89
2023-04-02T05:39:50.679Z,31.49
2023-04-02T05:40:50.663Z,31.89
2023-04-02T05:41:50.666Z,30.78
2023-04-02T05:42:50.662Z,25.95
2023-04-02T05:43:50.662Z,31.14
2023-04-02T05:44:50.637Z,33.19
2023-04-02T05:45:50.623Z,36.11
2023-04-02T05:46:50.671Z,35.89
2023-04-02T05:47:50.659Z,36.70
2023-04-02T05:48:50.563Z,44.97
2023-04-02T05:49:50.543Z,37.18
2023-04-02T05:50:50.579Z,40.65
2023-04-02T05:51:50.538Z,42.32
2023-04-02T05:52:50.537Z,45.38
2023-04-02T05:53:50.506Z,43.41
2023-04-02T05:54:50.462Z,47.01
2023-04-02T05:55:50.427Z,39.61
2023-04-02T05:56:50.433Z,46.48
2023-04-02T05:58:07.011Z,42.91
2023-04-02T05:58:51.384Z,40.88
2023-04-02T05:59:50.297Z,43.61
2023-04-02T06:00:50.258Z,44.13
2023-04-02T06:01:50.222Z,42.79
2023-04-02T06:02:50.335Z,43.04
2023-04-02T06:03:50.169Z,49.02
2023-04-02T06:04:50.102Z,44.54
2023-04-02T06:05:50.061Z,40.04
2023-04-02T06:06:50.021Z,38.52
2023-04-02T06:07:49.974Z,38.54
2023-04-02T06:08:49.932Z,30.67
2023-04-02T06:09:49.896Z,36.76
2023-04-02T06:10:49.858Z,37.75
2023-04-02T06:11:49.832Z,34.41
2023-04-02T06:12:49.790Z,31.03
2023-04-02T06:13:49.753Z,36.99
2023-04-02T06:14:49.721Z,31.70
2023-04-02T06:15:49.671Z,28.85
2023-04-02T06:16:49.668Z,28.50
2023-04-02T06:17:49.612Z,31.85
2023-04-02T06:18:49.579Z,34.66
2023-04-02T06:19:49.577Z,25.00
2023-04-02T06:20:49.617Z,30.96
2023-04-02T06:21:49.617Z,34.69
2023-04-02T06:22:49.626Z,35.27
2023-04-02T06:23:49.587Z,30.84
2023-04-02T06:24:49.579Z,37.37
2023-04-02T06:25:49.575Z,31.93
2023-04-02T06:26:49.573Z,35.39
2023-04-02T06:27:49.586Z,30.78
2023-04-02T06:28:49.571Z,27.56
2023-04-02T06:29:49.575Z,28.45
2023-04-02T06:30:49.576Z,32.01
2023-04-02T06:31:49.628Z,36.20
2023-04-02T06:32:49.603Z,31.94
2023-04-02T06:33:49.562Z,30.70
2023-04-02T06:34:49.575Z,30.37
2023-04-02T06:35:49.591Z,25.59
2023-04-02T06:36:49.593Z,28.45
2023-04-02T06:37:49.530Z,26.77
2023-04-02T06:38:49.517Z,29.27
2023-04-02T06:39:49.492Z,33.38
2023-04-02T06:40:49.481Z,32.23
2023-04-02T06:41:49.473Z,34.08
2023-04-02T06:42:49.485Z,31.65
2023-04-02T06:43:49.476Z,37.64
2023-04-02T06:44:49.478Z,32.76
2023-04-02T06:45:49.552Z,29.92
2023-04-02T06:46:51.791Z,34.71
2023-04-02T06:47:49.442Z,42.68
2023-04-02T06:48:49.397Z,40.12
2023-04-02T06:49:49.354Z,42.06
2023-04-02T06:50:49.311Z,39.05
2023-04-02T06:51:49.273Z,44.66
2023-04-02T06:52:49.233Z,40.44
2023-04-02T06:53:49.200Z,45.13
2023-04-02T06:54:49.184Z,44.52
2023-04-02T06:55:49.128Z,44.88
2023-04-02T06:56:49.115Z,45.78
2023-04-02T06:57:49.031Z,44.00
2023-04-02T06:58:48.990Z,40.66
2023-04-02T06:59:48.947Z,45.01
2023-04-02T07:00:48.921Z,47.93
2023-04-02T07:01:48.988Z,42.91
2023-04-02T07:02:48.845Z,46.59
2023-04-02T07:03:48.786Z,43.69
2023-04-02T07:04:48.824Z,46.06
2023-04-02T07:05:48.715Z,47.59
2023-04-02T07:06:48.670Z,47.13
2023-04-02T07:07:48.635Z,45.56
2023-04-02T07:08:48.595Z,46.38
2023-04-02T07:09:48.554Z,47.18
2023-04-02T07:10:48.506Z,45.74
2023-04-02T07:11:48.473Z,43.87
2023-04-02T07:12:48.438Z,48.55
2023-04-02T07:13:48.409Z,48.83
2023-04-02T07:14:48.370Z,46.68
2023-04-02T07:15:48.341Z,48.50
2023-04-02T07:16:48.281Z,47.43
2023-04-02T07:17:48.325Z,45.58
2023-04-02T07:18:48.211Z,49.21
2023-04-02T07:19:48.166Z,51.79
2023-04-02T07:20:48.144Z,45.87
2023-04-02T07:21:48.103Z,47.49
2023-04-02T07:22:48.053Z,51.02
2023-04-02T07:23:48.037Z,44.44
2023-04-02T07:24:47.986Z,46.64
2023-04-02T07:25:47.943Z,48.04
2023-04-02T07:26:47.898Z,46.40
2023-04-02T07:27:47.866Z,46.93
2023-04-02T07:28:47.828Z,45.21
2023-04-02T07:29:47.780Z,43.92
2023-04-02T07:30:47.742Z,44.76
2023-04-02T07:31:47.770Z,47.53
2023-04-02T07:32:47.688Z,44.70
2023-04-02T07:33:47.631Z,46.26
2023-04-02T07:34:47.585Z,44.45
2023-04-02T07:35:47.563Z,48.92
2023-04-02T07:36:47.498Z,43.29
2023-04-02T07:37:47.466Z,47.84
2023-04-02T07:38:47.435Z,43.79
2023-04-02T07:39:47.408Z,43.47
2023-04-02T07:40:47.373Z,43.44
2023-04-02T07:41:47.336Z,43.34
2023-04-02T07:42:47.298Z,41.37
2023-04-02T07:43:47.270Z,47.69
2023-04-02T07:44:47.236Z,47.20
2023-04-02T07:45:47.201Z,44.56
2023-04-02T07:46:47.209Z,49.07
2023-04-02T07:47:47.169Z,44.92
2023-04-02T07:48:47.117Z,44.46
2023-04-02T07:49:47.079Z,44.54
2023-04-02T07:50:47.042Z,43.19
2023-04-02T07:51:47.017Z,45.44
2023-04-02T07:52:46.986Z,42.93
2023-04-02T07:53:46.945Z,44.37
2023-04-02T07:54:46.908Z,48.63
2023-04-02T07:55:46.888Z,46.23
2023-04-02T07:56:46.842Z,44.21
2023-04-02T07:57:46.919Z,43.57
2023-04-02T07:58:46.806Z,45.80
2023-04-02T07:59:46.764Z,40.75
2023-04-02T08:00:46.715Z,46.17
2023-04-02T08:01:46.700Z,47.88
2023-04-02T08:02:46.650Z,43.24
2023-04-02T08:03:46.735Z,46.11
2023-04-02T08:04:46.568Z,47.80
2023-04-02T08:05:46.537Z,44.40
2023-04-02T08:06:46.498Z,40.78
2023-04-02T08:07:46.464Z,43.40
2023-04-02T08:08:46.434Z,43.72
2023-04-02T08:09:46.411Z,41.37
2023-04-02T08:10:46.359Z,47.22
2023-04-02T08:11:46.360Z,49.35
2023-04-02T08:12:46.294Z,47.48
2023-04-02T08:13:46.261Z,39.46
2023-04-02T08:14:46.218Z,44.59
2023-04-02T08:15:46.190Z,42.04
2023-04-02T08:16:46.192Z,43.97
2023-04-02T08:17:46.163Z,40.71
2023-04-02T08:18:46.078Z,45.73
2023-04-02T08:19:54.152Z,40.76
2023-04-02T08:20:46.996Z,40.94
2023-04-02T08:21:45.964Z,42.20
2023-04-02T08:22:45.927Z,42.01
2023-04-02T08:23:45.904Z,43.39
2023-04-02T08:24:45.855Z,44.88
2023-04-02T08:25:45.812Z,49.73
2023-04-02T08:26:45.777Z,43.20
2023-04-02T08:27:45.733Z,45.98
2023-04-02T08:28:45.699Z,48.15
2023-04-02T08:29:45.666Z,44.76
2023-04-02T08:30:45.700Z,42.09
2023-04-02T08:31:45.629Z,41.92
2023-04-02T08:32:45.609Z,40.03
2023-04-02T08:33:45.544Z,39.19
2023-04-02T08:34:45.512Z,43.39
2023-04-02T08:35:45.518Z,41.48
2023-04-02T08:36:45.464Z,45.05
2023-04-02T08:37:45.410Z,40.83
2023-04-02T08:38:45.380Z,41.49
2023-04-02T08:39:45.339Z,42.65
2023-04-02T08:40:45.307Z,38.04
2023-04-02T08:41:45.268Z,43.82
2023-04-02T08:42:45.245Z,39.16
2023-04-02T08:43:45.205Z,43.88
2023-04-02T08:44:45.170Z,42.05
2023-04-02T08:45:45.121Z,40.80
2023-04-02T08:46:45.094Z,41.83
2023-04-02T08:47:45.116Z,42.81
2023-04-02T08:48:45.036Z,45.66
2023-04-02T08:49:45.007Z,41.54
2023-04-02T08:50:44.964Z,44.25
2023-04-02T08:51:44.934Z,41.27
2023-04-02T08:52:44.892Z,43.82
2023-04-02T08:53:44.847Z,45.22
2023-04-02T08:54:44.822Z,44.13
2023-04-02T08:55:44.795Z,42.67
2023-04-02T08:56:44.756Z,46.60
2023-04-02T08:57:44.736Z,41.00
2023-04-02T08:58:44.722Z,43.29
2023-04-02T08:59:44.678Z,43.07
2023-04-02T09:00:44.659Z,42.55
2023-04-02T09:01:44.655Z,37.35
2023-04-02T09:02:44.623Z,43.49
2023-04-02T09:03:44.601Z,43.59
2023-04-02T09:04:44.643Z,38.24
2023-04-02T09:05:44.541Z,41.15
2023-04-02T09:06:44.524Z,39.82
2023-04-02T09:07:44.498Z,39.12
2023-04-02T09:08:44.490Z,43.34
2023-04-02T09:09:44.459Z,44.22
2023-04-02T09:10:44.444Z,44.11
2023-04-02T09:11:44.409Z,42.44
2023-04-02T09:12:44.390Z,41.77
2023-04-02T09:13:44.366Z,42.54
2023-04-02T09:14:44.353Z,43.25
2023-04-02T09:15:44.370Z,40.39
2023-04-02T09:16:44.847Z,43.51
2023-04-02T09:17:53.600Z,43.37
2023-04-02T09:18:45.391Z,43.47
2023-04-02T09:19:44.234Z,43.73
2023-04-02T09:20:44.200Z,43.77
2023-04-02T09:21:44.148Z,42.67
2023-04-02T09:22:44.116Z,41.15
2023-04-02T09:23:44.105Z,42.41
2023-04-02T09:24:44.029Z,43.45
2023-04-02T09:25:48.507Z,41.40
2023-04-02T09:26:44.955Z,41.66
2023-04-02T09:27:43.958Z,41.83
2023-04-02T09:28:43.876Z,42.53
2023-04-02T09:29:43.843Z,46.02
2023-04-02T09:30:43.787Z,42.40
2023-04-02T09:31:43.826Z,42.10
2023-04-02T09:32:43.749Z,39.64
2023-04-02T09:33:43.678Z,43.22
2023-04-02T09:34:43.644Z,39.93
2023-04-02T09:35:43.878Z,41.09
2023-04-02T09:36:43.572Z,40.13
2023-04-02T09:37:43.536Z,42.17
2023-04-02T09:38:43.495Z,42.87
2023-04-02T09:39:43.473Z,44.90
2023-04-02T09:40:43.424Z,38.71
2023-04-02T09:41:43.817Z,39.17
2023-04-02T09:42:43.352Z,39.24
2023-04-02T09:43:43.315Z,43.95
2023-04-02T09:44:43.335Z,43.10
2023-04-02T09:45:43.253Z,38.56
2023-04-02T09:46:43.274Z,41.16
2023-04-02T09:47:43.205Z,43.17
2023-04-02T09:48:43.130Z,37.95
2023-04-02T09:49:43.099Z,42.39
2023-04-02T09:50:43.052Z,38.07
2023-04-02T09:51:43.011Z,37.85
2023-04-02T09:52:42.979Z,36.33
2023-04-02T09:53:42.962Z,40.35
2023-04-02T09:54:42.918Z,37.72
2023-04-02T09:55:42.866Z,36.50
2023-04-02T09:56:42.824Z,41.09
2023-04-02T09:57:42.781Z,41.21
2023-04-02T09:58:42.740Z,40.01
2023-04-02T09:59:42.717Z,39.12
2023-04-02T10:00:42.665Z,37.00
2023-04-02T10:01:42.724Z,35.31
2023-04-02T10:02:42.651Z,36.63
2023-04-02T10:03:42.558Z,37.04
2023-04-02T10:04:42.632Z,38.36
2023-04-02T10:05:42.844Z,40.93
2023-04-02T10:06:42.445Z,39.38
2023-04-02T10:07:42.424Z,36.34
2023-04-02T10:08:42.383Z,35.71
2023-04-02T10:09:42.348Z,34.64
2023-04-02T10:10:42.298Z,36.41
2023-04-02T10:11:46.751Z,40.13
2023-04-02T10:12:42.237Z,40.32
2023-04-02T10:13:42.192Z,40.19
2023-04-02T10:14:42.157Z,39.67
2023-04-02T10:15:42.138Z,39.40
2023-04-02T10:16:42.124Z,36.92
2023-04-02T10:17:42.060Z,38.20
2023-04-02T10:18:42.004Z,36.85
2023-04-02T10:19:41.985Z,37.45
2023-04-02T10:20:50.331Z,35.48
2023-04-02T10:21:42.884Z,35.84
2023-04-02T10:22:41.846Z,35.88
2023-04-02T10:23:41.810Z,34.94
2023-04-02T10:24:41.777Z,37.91
2023-04-02T10:25:41.733Z,35.62
2023-04-02T10:26:41.698Z,34.23
2023-04-02T10:27:41.669Z,37.85
2023-04-02T10:28:41.621Z,35.39
2023-04-02T10:29:41.592Z,34.84
2023-04-02T10:30:41.644Z,35.15
2023-04-02T10:31:41.502Z,37.21
2023-04-02T10:32:41.534Z,36.67
2023-04-02T10:33:41.422Z,36.52
2023-04-02T10:34:42.902Z,41.36
2023-04-02T10:35:41.408Z,36.90
2023-04-02T10:36:41.314Z,34.92
2023-04-02T10:37:41.290Z,38.06
2023-04-02T10:38:41.238Z,31.33
2023-04-02T10:39:41.191Z,34.36
2023-04-02T10:40:41.163Z,35.52
2023-04-02T10:41:41.122Z,37.02
2023-04-02T10:42:41.097Z,35.92
2023-04-02T10:43:41.061Z,37.69
2023-04-02T10:44:41.024Z,34.87
2023-04-02T10:45:41.109Z,30.85
2023-04-02T10:46:40.957Z,34.89
2023-04-02T10:47:40.946Z,34.55
2023-04-02T10:48:40.861Z,37.14
2023-04-02T10:49:40.974Z,34.24
2023-04-02T10:50:40.806Z,38.59
2023-04-02T10:51:40.737Z,35.55
2023-04-02T10:52:40.696Z,35.29
2023-04-02T10:53:40.665Z,31.45
2023-04-02T10:54:40.623Z,32.32
2023-04-02T10:55:40.581Z,33.42
2023-04-02T10:56:49.882Z,36.86
2023-04-02T10:57:41.720Z,36.96
2023-04-02T10:58:40.464Z,36.70
2023-04-02T10:59:40.463Z,33.05
2023-04-02T11:00:40.370Z,36.19
2023-04-02T11:01:40.349Z,35.65
2023-04-02T11:02:40.546Z,34.59
2023-04-02T11:03:40.645Z,35.08
2023-04-02T11:04:40.214Z,35.49
2023-04-02T11:05:40.188Z,33.81
2023-04-02T11:06:40.143Z,37.54
2023-04-02T11:07:40.101Z,31.50
2023-04-02T11:08:40.074Z,37.89
2023-04-02T11:09:40.029Z,34.79
2023-04-02T11:10:39.986Z,31.84
2023-04-02T11:11:39.953Z,32.99
2023-04-02T11:12:41.927Z,39.90
2023-04-02T11:13:39.873Z,37.59
2023-04-02T11:14:39.819Z,35.19
2023-04-02T11:15:39.827Z,37.50
2023-04-02T11:16:43.526Z,36.04
2023-04-02T11:17:39.735Z,36.16
2023-04-02T11:18:39.692Z,36.25
2023-04-02T11:19:39.651Z,32.70
2023-04-02T11:20:39.612Z,37.16
2023-04-02T11:21:51.002Z,34.11
2023-04-02T11:22:40.527Z,36.14
2023-04-02T11:23:39.487Z,36.07
2023-04-02T11:24:39.445Z,36.17
2023-04-02T11:25:39.400Z,32.83
2023-04-02T11:26:39.358Z,36.99
2023-04-02T11:27:39.326Z,35.20
2023-04-02T11:28:39.291Z,34.42
2023-04-02T11:29:39.242Z,36.58
2023-04-02T11:30:39.201Z,34.59
2023-04-02T11:31:39.191Z,32.11
2023-04-02T11:32:39.223Z,36.16
2023-04-02T11:33:42.078Z,35.95
2023-04-02T11:34:40.052Z,36.05
2023-04-02T11:35:39.328Z,36.40
2023-04-02T11:36:38.950Z,36.66
2023-04-02T11:37:38.961Z,33.03
2023-04-02T11:38:38.860Z,37.96
2023-04-02T11:39:38.828Z,31.60
2023-04-02T11:40:38.793Z,30.23
2023-04-02T11:41:38.732Z,31.96
2023-04-02T11:42:38.690Z,31.45
2023-04-02T11:43:38.648Z,29.00
2023-04-02T11:44:38.615Z,32.79
2023-04-02T11:45:50.043Z,35.65
2023-04-02T11:46:39.554Z,34.99
2023-04-02T11:47:38.494Z,34.63
2023-04-02T11:48:38.441Z,36.44
2023-04-02T11:49:38.389Z,36.57
2023-04-02T11:50:38.351Z,32.42
2023-04-02T11:51:38.312Z,30.93
2023-04-02T11:52:38.431Z,30.79
2023-04-02T11:53:38.232Z,29.52
2023-04-02T11:54:38.181Z,29.87
2023-04-02T11:55:38.398Z,32.74
2023-04-02T11:56:38.425Z,33.32
2023-04-02T11:57:38.192Z,34.58
2023-04-02T11:58:38.049Z,28.23
2023-04-02T11:59:37.977Z,33.03
2023-04-02T12:00:38.032Z,27.71
2023-04-02T12:01:37.955Z,31.12
2023-04-02T12:02:38.001Z,32.50
2023-04-02T12:03:37.809Z,31.31
2023-04-02T12:04:37.790Z,28.17
2023-04-02T12:05:38.015Z,32.93
2023-04-02T12:06:37.690Z,27.98
2023-04-02T12:07:37.654Z,28.48
2023-04-02T12:08:47.231Z,32.26
2023-04-02T12:09:38.563Z,32.50
2023-04-02T12:10:37.517Z,31.49
2023-04-02T12:11:37.498Z,31.32
2023-04-02T12:12:37.436Z,32.88
2023-04-02T12:13:37.402Z,28.32
2023-04-02T12:14:37.360Z,28.50
2023-04-02T12:15:37.317Z,34.77
2023-04-02T12:16:37.306Z,31.17
2023-04-02T12:17:37.272Z,29.54
2023-04-02T12:18:37.200Z,33.92
2023-04-02T12:19:37.206Z,29.37
2023-04-02T12:20:37.408Z,31.15
2023-04-02T12:21:37.082Z,28.56
2023-04-02T12:22:37.021Z,30.57
2023-04-02T12:23:36.987Z,28.42
2023-04-02T12:24:36.956Z,32.84
2023-04-02T12:25:36.927Z,28.22
2023-04-02T12:26:36.922Z,30.21
2023-04-02T12:27:36.858Z,28.64
2023-04-02T12:28:36.796Z,32.75
2023-04-02T12:29:36.763Z,32.66
2023-04-02T12:30:36.831Z,27.99
2023-04-02T12:31:36.676Z,31.00
2023-04-02T12:32:36.631Z,34.39
2023-04-02T12:33:36.591Z,30.19
2023-04-02T12:34:36.551Z,29.52
2023-04-02T12:35:36.568Z,31.25
2023-04-02T12:36:36.478Z,34.24
2023-04-02T12:37:36.441Z,29.33
2023-04-02T12:38:36.421Z,32.53
2023-04-02T12:39:36.391Z,31.83
2023-04-02T12:40:36.580Z,30.58
2023-04-02T12:41:36.301Z,27.59
2023-04-02T12:42:36.271Z,27.69
2023-04-02T12:43:36.229Z,30.90
2023-04-02T12:44:36.195Z,28.82
2023-04-02T12:45:36.145Z,28.97
2023-04-02T12:46:36.221Z,27.62
2023-04-02T12:47:36.100Z,29.07
2023-04-02T12:48:36.038Z,26.91
2023-04-02T12:49:36.003Z,33.22
2023-04-02T12:50:36.096Z,30.59
2023-04-02T12:51:35.941Z,27.70
2023-04-02T12:52:35.900Z,26.30